Terminal Aerodrome Forecast
Issued by NWS

Home | Current Version | Previous Version | Text Only | Print | Product List | Glossary On
Versions: 1 2 3 4 5 6 7 8 9 10 11 12 13 14 15 16
000
FTUS45 KRIW 262300
TAFBPI
TAF
KBPI 262325Z 2700/2724 34014G24KT P6SM VCSH SCT025 BKN040
     FM270400 35007KT P6SM VCSH SCT025 BKN040
     FM271200 VRB04KT P6SM VCSH BKN040
     FM272000 VRB05KT P6SM BKN070=

USA.gov is the U.S. government's official web portal to all federal, state and local government web resources and services.